Time;durP1;ratioP1;P1;durP2;ratioP2;P2;SDS_P1;SDS_P2;PMS_P1;PMS_P2;Temp;Humidity;BMP_temperature;BMP_pressure;BME280_temperature;BME280_humidity;BME280_pressure;Samples;Min_cycle;Max_cycle;Signal;HPM_P1;HPM_P2
2022/04/20 00:02:16;;;;;;;;;;;6.00;99.90;;;;;;5035249;28;20024;-68
2022/04/20 00:04:43;;;;;;;;;;;5.90;99.90;;;;;;5027015;28;20364;-67
2022/04/20 00:07:10;;;;;;;;;;;5.90;99.90;;;;;;5019827;28;19940;-67
2022/04/20 00:09:37;;;;;;;;;;;5.90;99.90;;;;;;5031356;28;19932;-67
2022/04/20 00:12:04;;;;;;;;;;;5.80;99.90;;;;;;5030510;28;19964;-67
2022/04/20 00:14:31;;;;;;;;;;;5.90;99.90;;;;;;5030153;28;20014;-67
2022/04/20 00:16:59;;;;;;;;;;;5.80;99.90;;;;;;5033943;28;19959;-67
2022/04/20 00:19:26;;;;;;;;;;;5.90;99.90;;;;;;5032055;28;19929;-67
2022/04/20 00:21:53;;;;;;;;;;;6.00;99.90;;;;;;5036383;28;20402;-67
2022/04/20 00:24:20;;;;;;;;;;;6.00;99.90;;;;;;5030270;28;20383;-67
2022/04/20 00:26:47;;;;;;;;;;;6.00;99.90;;;;;;5036295;28;19939;-67
2022/04/20 00:29:14;;;;;;;;;;;5.80;99.90;;;;;;5034568;28;19978;-67
2022/04/20 00:31:41;;;;;;;;;;;5.80;99.90;;;;;;5027386;28;20398;-67
2022/04/20 00:34:09;;;;;;;;;;;5.80;99.90;;;;;;5028235;28;19933;-67
2022/04/20 00:36:36;;;;;;;;;;;5.70;99.90;;;;;;5046999;28;19978;-67
2022/04/20 00:39:03;;;;;;;;;;;5.70;99.90;;;;;;5030208;28;20037;-67
2022/04/20 00:41:31;;;;;;;;;;;5.60;99.90;;;;;;5025440;28;19940;-67
2022/04/20 00:43:58;;;;;;;;;;;5.60;99.90;;;;;;5033541;28;19936;-67
2022/04/20 00:46:26;;;;;;;;;;;5.60;99.90;;;;;;5033169;28;19925;-68
2022/04/20 00:48:53;;;;;;;;;;;5.50;99.90;;;;;;5030037;28;20713;-67
2022/04/20 00:51:21;;;;;;;;;;;5.60;99.90;;;;;;5030444;28;20384;-67
2022/04/20 00:53:49;;;;;;;;;;;5.60;99.90;;;;;;5032347;28;20055;-67
2022/04/20 00:56:18;;;;;;;;;;;5.60;99.90;;;;;;5032423;28;19929;-67
2022/04/20 00:58:45;;;;;;;;;;;5.60;99.90;;;;;;5034508;28;20353;-68
2022/04/20 01:01:13;;;;;;;;;;;5.50;99.90;;;;;;5033023;28;20782;-68
2022/04/20 01:03:42;;;;;;;;;;;5.70;99.90;;;;;;5033670;28;19932;-67
2022/04/20 01:06:28;;;;;;;;;;;5.70;99.90;;;;;;5046364;28;19929;-67
2022/04/20 01:09:04;;;;;;;;;;;5.60;99.90;;;;;;5028165;28;19932;-67
2022/04/20 01:12:04;;;;;;;;;;;5.70;99.90;;;;;;5043117;28;20112;-67
2022/04/20 01:14:55;;;;;;;;;;;5.60;99.90;;;;;;5035444;28;20319;-67
2022/04/20 01:17:55;;;;;;;;;;;5.70;99.90;;;;;;5022040;28;19933;-67
2022/04/20 01:20:41;;;;;;;;;;;5.70;99.90;;;;;;5030190;28;19974;-67
2022/04/20 01:23:16;;;;;;;;;;;5.60;99.90;;;;;;5046772;28;19929;-67
2022/04/20 01:26:07;;;;;;;;;;;5.60;99.90;;;;;;5030052;28;20280;-67
2022/04/20 01:29:13;;;;;;;;;;;5.50;99.90;;;;;;5032332;28;19933;-67
2022/04/20 01:31:56;;;;;;;;;;;5.40;99.90;;;;;;5020620;28;19933;-67
2022/04/20 01:34:46;;;;;;;;;;;5.40;99.90;;;;;;5026127;28;19933;-68
2022/04/20 01:37:14;;;;;;;;;;;5.30;99.90;;;;;;5037117;28;20052;-68
2022/04/20 01:39:41;;;;;;;;;;;5.30;99.90;;;;;;5037282;28;20091;-67
2022/04/20 01:42:08;;;;;;;;;;;5.30;99.90;;;;;;5031567;28;19939;-67
2022/04/20 01:44:39;;;;;;;;;;;5.20;99.90;;;;;;5046826;28;19963;-67
2022/04/20 01:47:20;;;;;;;;;;;5.10;99.90;;;;;;5025182;28;19936;-67
2022/04/20 01:50:06;;;;;;;;;;;5.10;99.90;;;;;;5033651;28;20502;-67
2022/04/20 01:52:47;;;;;;;;;;;5.10;99.90;;;;;;5032646;28;19929;-67
2022/04/20 01:55:40;;;;;;;;;;;5.30;99.90;;;;;;5036340;28;20515;-67
2022/04/20 01:58:28;;;;;;;;;;;5.20;99.90;;;;;;5036378;28;20063;-68
2022/04/20 02:02:34;;;;;;;;;;;5.30;99.90;;;;;;5018747;28;19967;-68
2022/04/20 02:03:53;;;;;;;;;;;5.30;99.90;;;;;;5037698;28;20356;-67
2022/04/20 02:06:21;;;;;;;;;;;5.30;99.90;;;;;;5033632;28;20877;-67
2022/04/20 02:09:08;;;;;;;;;;;5.10;99.90;;;;;;5029856;28;19983;-67
2022/04/20 02:11:38;;;;;;;;;;;5.10;99.90;;;;;;5033839;28;20014;-67
2022/04/20 02:14:14;;;;;;;;;;;5.10;99.90;;;;;;5039238;28;19928;-67
2022/04/20 02:16:47;;;;;;;;;;;5.10;99.90;;;;;;5031683;28;19925;-66
2022/04/20 02:19:33;;;;;;;;;;;5.10;99.90;;;;;;5032786;28;19994;-67
2022/04/20 02:22:13;;;;;;;;;;;5.10;99.90;;;;;;5036407;28;19999;-68
2022/04/20 02:24:40;;;;;;;;;;;4.90;99.90;;;;;;5030495;28;20449;-67
2022/04/20 02:27:09;;;;;;;;;;;5.00;99.90;;;;;;5038302;28;20442;-67
2022/04/20 02:29:36;;;;;;;;;;;5.00;99.90;;;;;;5033681;28;20509;-67
2022/04/20 02:32:04;;;;;;;;;;;4.80;99.90;;;;;;5036049;28;19960;-66
2022/04/20 02:34:31;;;;;;;;;;;4.80;99.90;;;;;;5034235;28;19933;-67
2022/04/20 02:36:58;;;;;;;;;;;4.80;99.90;;;;;;5035071;28;19932;-67
2022/04/20 02:39:26;;;;;;;;;;;4.90;99.90;;;;;;5040976;28;19924;-67
2022/04/20 02:41:53;;;;;;;;;;;4.90;99.90;;;;;;5038932;28;20370;-66
2022/04/20 02:44:20;;;;;;;;;;;4.90;99.90;;;;;;5017756;28;19939;-67
2022/04/20 02:46:47;;;;;;;;;;;4.90;99.90;;;;;;5017489;28;20010;-67
2022/04/20 02:49:16;;;;;;;;;;;4.90;99.90;;;;;;5018089;28;19925;-66
2022/04/20 02:51:43;;;;;;;;;;;4.80;99.90;;;;;;5033562;28;19936;-66
2022/04/20 02:54:11;;;;;;;;;;;4.80;99.90;;;;;;5048303;28;19925;-66
2022/04/20 02:56:39;;;;;;;;;;;4.60;99.90;;;;;;5030206;28;19933;-66
2022/04/20 02:59:06;;;;;;;;;;;4.70;99.90;;;;;;5036529;28;20416;-66
2022/04/20 03:01:36;;;;;;;;;;;4.80;99.90;;;;;;5018655;28;20004;-66
2022/04/20 03:04:08;;;;;;;;;;;4.80;99.90;;;;;;5034704;28;19943;-67
2022/04/20 03:06:35;;;;;;;;;;;4.80;99.90;;;;;;5019232;28;20439;-66
2022/04/20 03:09:12;;;;;;;;;;;4.70;99.90;;;;;;5030820;28;20062;-66
2022/04/20 03:11:40;;;;;;;;;;;4.70;99.90;;;;;;5030780;28;20345;-66
2022/04/20 03:14:07;;;;;;;;;;;4.70;99.90;;;;;;5038713;28;19947;-66
2022/04/20 03:16:35;;;;;;;;;;;4.60;99.90;;;;;;5034837;28;19929;-66
2022/04/20 03:19:08;;;;;;;;;;;4.60;99.90;;;;;;5032035;28;20587;-66
2022/04/20 03:21:35;;;;;;;;;;;4.50;99.90;;;;;;5036378;28;20315;-66
2022/04/20 03:24:02;;;;;;;;;;;4.50;99.90;;;;;;5036208;28;20859;-67
2022/04/20 03:26:48;;;;;;;;;;;4.50;99.90;;;;;;5030813;28;19947;-66
2022/04/20 03:29:45;;;;;;;;;;;4.50;99.90;;;;;;5029244;28;20400;-66
2022/04/20 03:32:15;;;;;;;;;;;4.50;99.90;;;;;;5033610;28;19968;-66
2022/04/20 03:34:42;;;;;;;;;;;4.40;99.90;;;;;;5033964;28;20686;-67
2022/04/20 03:37:11;;;;;;;;;;;4.30;99.90;;;;;;5034751;28;19925;-66
2022/04/20 03:39:40;;;;;;;;;;;4.40;99.90;;;;;;5031700;28;20513;-66
2022/04/20 03:42:07;;;;;;;;;;;4.40;99.90;;;;;;5035193;28;19932;-66
2022/04/20 03:44:36;;;;;;;;;;;4.30;99.90;;;;;;5035963;28;19928;-66
2022/04/20 03:47:03;;;;;;;;;;;4.40;99.90;;;;;;5038068;28;19929;-67
2022/04/20 03:49:30;;;;;;;;;;;4.30;99.90;;;;;;5031920;28;20463;-66
2022/04/20 03:51:57;;;;;;;;;;;4.20;99.90;;;;;;5045256;28;20711;-67
2022/04/20 03:54:31;;;;;;;;;;;4.20;99.90;;;;;;5031956;28;20692;-66
2022/04/20 03:57:07;;;;;;;;;;;4.30;99.90;;;;;;5033111;28;19960;-66
2022/04/20 03:59:39;;;;;;;;;;;4.30;99.90;;;;;;5036211;28;20007;-66
2022/04/20 04:02:08;;;;;;;;;;;4.20;99.90;;;;;;5029097;28;19976;-67
2022/04/20 04:04:43;;;;;;;;;;;4.20;99.90;;;;;;5034285;28;19933;-66
2022/04/20 04:07:22;;;;;;;;;;;4.10;99.90;;;;;;5029640;28;19929;-67
2022/04/20 04:09:49;;;;;;;;;;;4.00;99.90;;;;;;5036770;28;20078;-66
2022/04/20 04:12:20;;;;;;;;;;;4.00;99.90;;;;;;5045511;28;20011;-66
2022/04/20 04:14:50;;;;;;;;;;;4.00;99.90;;;;;;5028519;28;19929;-66
2022/04/20 04:17:18;;;;;;;;;;;4.00;99.90;;;;;;5027605;28;20343;-66
2022/04/20 04:19:46;;;;;;;;;;;4.10;99.90;;;;;;5034958;28;19935;-66
2022/04/20 04:22:13;;;;;;;;;;;4.30;99.90;;;;;;5035520;28;19952;-67
2022/04/20 04:24:52;;;;;;;;;;;4.30;99.90;;;;;;5020707;28;20057;-67
2022/04/20 04:27:21;;;;;;;;;;;4.30;99.90;;;;;;5023577;28;19928;-66
2022/04/20 04:29:48;;;;;;;;;;;4.30;99.90;;;;;;5017169;28;20345;-66
2022/04/20 04:32:16;;;;;;;;;;;4.40;99.90;;;;;;5015044;28;20051;-67
2022/04/20 04:34:43;;;;;;;;;;;4.40;99.90;;;;;;5024693;28;19987;-67
2022/04/20 04:37:14;;;;;;;;;;;4.40;99.90;;;;;;5037431;28;19933;-67
2022/04/20 04:39:44;;;;;;;;;;;4.30;99.90;;;;;;5029288;28;19936;-67
2022/04/20 04:42:11;;;;;;;;;;;4.40;99.90;;;;;;5028359;28;19925;-67
2022/04/20 04:44:38;;;;;;;;;;;4.40;99.90;;;;;;5019388;28;19932;-67
2022/04/20 04:49:55;;;;;;;;;;;4.40;99.90;;;;;;5046674;28;19937;-67
2022/04/20 04:52:22;;;;;;;;;;;4.40;99.90;;;;;;5046831;28;19929;-67
2022/04/20 04:54:59;;;;;;;;;;;4.40;99.90;;;;;;5034517;28;20014;-67
2022/04/20 04:57:30;;;;;;;;;;;4.40;99.90;;;;;;5030886;28;19972;-67
2022/04/20 04:59:57;;;;;;;;;;;4.40;99.90;;;;;;5033290;28;19944;-67
2022/04/20 05:02:25;;;;;;;;;;;4.40;99.90;;;;;;4991490;28;20730;-67
2022/04/20 05:04:53;;;;;;;;;;;4.50;99.90;;;;;;4970377;28;20173;-67
2022/04/20 05:07:22;;;;;;;;;;;4.50;99.90;;;;;;4988559;28;22407;-67
2022/04/20 05:09:55;;;;;;;;;;;4.40;99.90;;;;;;4986149;28;19933;-67
2022/04/20 05:12:23;;;;;;;;;;;4.50;99.90;;;;;;4977688;28;19933;-67
2022/04/20 05:14:50;;;;;;;;;;;4.50;99.90;;;;;;4989785;28;20021;-67
2022/04/20 05:17:17;;;;;;;;;;;4.50;99.90;;;;;;4996064;28;19933;-67
2022/04/20 05:19:45;;;;;;;;;;;4.50;99.90;;;;;;4988341;28;20011;-67
2022/04/20 05:22:20;;;;;;;;;;;4.50;99.90;;;;;;4989995;28;19933;-67
2022/04/20 05:24:47;;;;;;;;;;;4.60;99.90;;;;;;5000905;28;20283;-67
2022/04/20 05:27:15;;;;;;;;;;;4.70;99.90;;;;;;4986832;28;19964;-67
2022/04/20 05:29:51;;;;;;;;;;;4.80;99.90;;;;;;4988382;28;19933;-67
2022/04/20 05:32:18;;;;;;;;;;;4.80;99.90;;;;;;4989843;28;22284;-67
2022/04/20 05:34:46;;;;;;;;;;;5.00;99.90;;;;;;5002606;28;19933;-67
2022/04/20 05:42:47;;;;;;;;;;;5.20;99.90;;;;;;4988826;28;20091;-67
2022/04/20 05:45:15;;;;;;;;;;;5.40;99.90;;;;;;4988978;28;19933;-67
2022/04/20 05:47:48;;;;;;;;;;;5.50;99.90;;;;;;4986964;28;19932;-67
2022/04/20 05:50:15;;;;;;;;;;;5.60;99.90;;;;;;4989470;28;19945;-67
2022/04/20 05:52:43;;;;;;;;;;;5.70;99.90;;;;;;4980727;28;19937;-67
2022/04/20 05:55:11;;;;;;;;;;;5.90;99.90;;;;;;4995816;28;20003;-67
2022/04/20 05:57:40;;;;;;;;;;;6.00;99.90;;;;;;4987552;28;19933;-67
2022/04/20 06:00:08;;;;;;;;;;;6.10;99.90;;;;;;4986054;28;19940;-67
2022/04/20 06:03:07;;;;;;;;;;;6.30;99.90;;;;;;4989175;28;20530;-67
2022/04/20 06:05:34;;;;;;;;;;;6.50;99.90;;;;;;4988209;28;19940;-66
2022/04/20 06:08:17;;;;;;;;;;;6.70;99.90;;;;;;5003409;28;19940;-67
2022/04/20 06:11:06;;;;;;;;;;;6.80;99.90;;;;;;4978458;28;19976;-66
2022/04/20 06:13:34;;;;;;;;;;;7.00;98.90;;;;;;4990756;28;19975;-67
2022/04/20 06:16:11;;;;;;;;;;;7.10;98.70;;;;;;4997324;28;22340;-67
2022/04/20 06:18:50;;;;;;;;;;;7.30;97.60;;;;;;5004024;28;19932;-67
2022/04/20 06:21:24;;;;;;;;;;;7.40;96.70;;;;;;4995835;28;21219;-66
2022/04/20 06:24:10;;;;;;;;;;;7.50;95.10;;;;;;5004216;28;22366;-67
2022/04/20 06:26:45;;;;;;;;;;;7.70;94.70;;;;;;5001449;28;24086;-67
2022/04/20 06:29:38;;;;;;;;;;;7.80;93.30;;;;;;4989874;28;19937;-67
2022/04/20 06:32:28;;;;;;;;;;;7.90;92.30;;;;;;4974641;28;19932;-66
2022/04/20 06:35:21;;;;;;;;;;;8.10;92.50;;;;;;4985436;28;20065;-67
2022/04/20 06:38:16;;;;;;;;;;;8.30;91.50;;;;;;4976248;28;22078;-67
2022/04/20 06:41:06;;;;;;;;;;;8.40;90.80;;;;;;4973332;28;20071;-66
2022/04/20 06:43:35;;;;;;;;;;;8.60;90.30;;;;;;4986299;28;19940;-66
2022/04/20 06:46:25;;;;;;;;;;;8.50;89.80;;;;;;4985186;28;19933;-67
2022/04/20 06:49:11;;;;;;;;;;;8.80;90.00;;;;;;4988292;28;20023;-67
2022/04/20 07:00:25;;;;;;;;;;;9.30;86.40;;;;;;4990355;28;19933;-67
2022/04/20 07:03:11;;;;;;;;;;;9.40;84.60;;;;;;4988200;28;21027;-68
2022/04/20 07:05:58;;;;;;;;;;;9.40;85.30;;;;;;4986672;28;20010;-67
2022/04/20 07:08:45;;;;;;;;;;;9.50;84.70;;;;;;4988887;28;19933;-66
2022/04/20 07:11:16;;;;;;;;;;;9.80;85.20;;;;;;4967566;28;19939;-67
2022/04/20 07:13:46;;;;;;;;;;;9.90;83.50;;;;;;4984184;28;19933;-67
2022/04/20 07:16:14;;;;;;;;;;;9.90;83.30;;;;;;4999149;28;22337;-67
2022/04/20 07:18:45;;;;;;;;;;;9.80;83.00;;;;;;5001402;28;19986;-68
2022/04/20 07:21:36;;;;;;;;;;;10.00;84.20;;;;;;5004722;28;19941;-67
2022/04/20 07:24:22;;;;;;;;;;;10.30;81.10;;;;;;5002947;28;20068;-67
2022/04/20 07:27:16;;;;;;;;;;;10.10;77.00;;;;;;4988094;28;19933;-67
2022/04/20 07:30:01;;;;;;;;;;;10.10;76.60;;;;;;4990427;28;19940;-67
2022/04/20 07:33:04;;;;;;;;;;;10.30;77.60;;;;;;4996003;28;19933;-68
2022/04/20 07:36:02;;;;;;;;;;;10.60;76.60;;;;;;4940505;28;22159;-67
2022/04/20 07:39:01;;;;;;;;;;;10.70;73.90;;;;;;4998578;28;19933;-67
2022/04/20 07:41:47;;;;;;;;;;;10.70;71.70;;;;;;4989005;28;19983;-67
2022/04/20 07:44:32;;;;;;;;;;;11.00;71.90;;;;;;4990313;28;20449;-67
2022/04/20 07:47:38;;;;;;;;;;;10.90;64.80;;;;;;4984684;28;19943;-68
2022/04/20 07:50:35;;;;;;;;;;;10.90;66.00;;;;;;4976275;28;19933;-68
2022/04/20 07:53:28;;;;;;;;;;;11.00;68.10;;;;;;4985627;28;22299;-67
2022/04/20 07:56:18;;;;;;;;;;;11.20;68.90;;;;;;4989186;28;19933;-68
2022/04/20 07:59:08;;;;;;;;;;;11.00;66.90;;;;;;4985046;28;19933;-67
2022/04/20 08:01:54;;;;;;;;;;;11.10;68.00;;;;;;4987717;28;20763;-67
2022/04/20 08:04:40;;;;;;;;;;;11.40;65.80;;;;;;4989018;28;19940;-68
2022/04/20 08:07:13;;;;;;;;;;;11.50;62.80;;;;;;4988133;28;20153;-67
2022/04/20 08:09:40;;;;;;;;;;;11.30;61.80;;;;;;4986685;28;19933;-67
2022/04/20 08:12:08;;;;;;;;;;;11.30;64.50;;;;;;5003500;28;20071;-68
2022/04/20 08:14:36;;;;;;;;;;;11.40;62.30;;;;;;4985779;28;22508;-67
2022/04/20 08:17:13;;;;;;;;;;;11.50;61.30;;;;;;4981024;28;20731;-68
2022/04/20 08:19:40;;;;;;;;;;;11.60;61.40;;;;;;4988125;28;19933;-68
2022/04/20 08:22:30;;;;;;;;;;;11.80;62.30;;;;;;4986127;28;19941;-68
2022/04/20 08:24:57;;;;;;;;;;;12.10;62.70;;;;;;4994820;28;19941;-67
2022/04/20 08:27:24;;;;;;;;;;;11.90;60.60;;;;;;4988094;28;20024;-68
2022/04/20 08:29:51;;;;;;;;;;;12.20;60.60;;;;;;4985783;28;19933;-68
2022/04/20 08:32:19;;;;;;;;;;;12.10;59.80;;;;;;4988322;28;19940;-68
2022/04/20 08:34:48;;;;;;;;;;;12.40;64.50;;;;;;4987922;28;19932;-68
2022/04/20 08:37:31;;;;;;;;;;;12.50;63.50;;;;;;4987422;28;19940;-68
2022/04/20 08:39:57;;;;;;;;;;;12.70;61.80;;;;;;4987034;28;22238;-69
2022/04/20 08:42:28;;;;;;;;;;;12.50;58.40;;;;;;4988575;28;20024;-68
2022/04/20 08:44:56;;;;;;;;;;;12.60;59.20;;;;;;5003871;28;19940;-68
2022/04/20 08:47:26;;;;;;;;;;;12.40;55.00;;;;;;4988807;28;20705;-68
2022/04/20 08:49:55;;;;;;;;;;;12.10;57.80;;;;;;4978794;28;22634;-68
2022/04/20 08:52:37;;;;;;;;;;;12.60;56.10;;;;;;4978361;28;19933;-68
2022/04/20 08:55:13;;;;;;;;;;;12.80;57.10;;;;;;4981251;28;19976;-68
2022/04/20 08:57:41;;;;;;;;;;;13.20;61.50;;;;;;4986240;28;19979;-69
2022/04/20 09:00:09;;;;;;;;;;;13.20;57.50;;;;;;4986059;28;19933;-68
2022/04/20 09:02:37;;;;;;;;;;;12.80;56.00;;;;;;4985724;28;22624;-68
2022/04/20 09:05:05;;;;;;;;;;;12.60;53.90;;;;;;4985980;28;19980;-68
2022/04/20 09:07:32;;;;;;;;;;;12.80;56.10;;;;;;4988282;28;22439;-69
2022/04/20 09:10:00;;;;;;;;;;;13.20;56.60;;;;;;4990037;28;19933;-68
2022/04/20 09:12:28;;;;;;;;;;;13.20;54.00;;;;;;4987282;28;20399;-68
2022/04/20 09:14:56;;;;;;;;;;;13.40;53.20;;;;;;4990578;28;20126;-68
2022/04/20 09:17:24;;;;;;;;;;;13.40;53.10;;;;;;4986076;28;25164;-68
2022/04/20 09:19:52;;;;;;;;;;;13.50;52.00;;;;;;4988100;28;20697;-68
2022/04/20 09:22:23;;;;;;;;;;;13.70;54.60;;;;;;4988146;28;19932;-68
2022/04/20 09:24:57;;;;;;;;;;;13.60;52.20;;;;;;4988034;28;20850;-68
2022/04/20 09:27:27;;;;;;;;;;;13.70;54.70;;;;;;4986695;28;19933;-68
2022/04/20 09:29:55;;;;;;;;;;;13.80;55.00;;;;;;4986650;28;19933;-69
2022/04/20 09:32:31;;;;;;;;;;;13.60;54.20;;;;;;4986855;28;20025;-69
2022/04/20 09:34:59;;;;;;;;;;;12.90;57.10;;;;;;4987168;28;20531;-68
2022/04/20 09:37:26;;;;;;;;;;;12.80;57.70;;;;;;4986974;28;19933;-70
2022/04/20 09:39:57;;;;;;;;;;;12.70;58.00;;;;;;4976515;28;19932;-68
2022/04/20 09:42:24;;;;;;;;;;;12.90;55.90;;;;;;4985557;28;19998;-69
2022/04/20 09:44:53;;;;;;;;;;;12.70;59.20;;;;;;4986042;28;19940;-68
2022/04/20 09:50:06;;;;;;;;;;;13.90;54.60;;;;;;4985201;28;20950;-68
2022/04/20 09:52:37;;;;;;;;;;;14.00;56.70;;;;;;4985950;28;20857;-69
2022/04/20 09:55:06;;;;;;;;;;;14.00;56.10;;;;;;5004513;28;19963;-68
2022/04/20 09:57:34;;;;;;;;;;;13.30;55.20;;;;;;4987871;28;19933;-68
2022/04/20 10:00:03;;;;;;;;;;;12.90;55.20;;;;;;4987778;28;19933;-68
2022/04/20 10:02:48;;;;;;;;;;;12.60;56.60;;;;;;4989613;28;19933;-68
2022/04/20 10:05:16;;;;;;;;;;;12.50;56.80;;;;;;4986904;28;19933;-67
2022/04/20 10:07:49;;;;;;;;;;;12.50;56.60;;;;;;4990562;28;19940;-68
2022/04/20 10:10:16;;;;;;;;;;;13.20;56.10;;;;;;4991606;28;19976;-68
2022/04/20 10:12:43;;;;;;;;;;;13.50;55.80;;;;;;4989727;28;20818;-68
2022/04/20 10:17:56;;;;;;;;;;;13.50;56.30;;;;;;4989445;28;19955;-68
2022/04/20 10:20:30;;;;;;;;;;;14.00;55.90;;;;;;4989248;28;19944;-69
2022/04/20 10:23:00;;;;;;;;;;;13.90;55.30;;;;;;4989852;28;19963;-69
2022/04/20 10:25:31;;;;;;;;;;;13.50;55.80;;;;;;5004384;28;19963;-68
2022/04/20 10:27:58;;;;;;;;;;;13.10;57.30;;;;;;4990851;28;19933;-69
2022/04/20 10:30:30;;;;;;;;;;;12.90;53.50;;;;;;4989455;28;19940;-71
2022/04/20 10:32:59;;;;;;;;;;;12.60;54.50;;;;;;4978215;28;19975;-69
2022/04/20 10:35:27;;;;;;;;;;;13.00;54.20;;;;;;5004592;28;19933;-68
2022/04/20 10:38:08;;;;;;;;;;;13.50;56.80;;;;;;4988690;28;19991;-68
2022/04/20 10:41:05;;;;;;;;;;;13.90;53.40;;;;;;4987015;28;19932;-68
2022/04/20 10:43:38;;;;;;;;;;;13.80;53.40;;;;;;5004912;28;22381;-68
2022/04/20 10:46:11;;;;;;;;;;;14.10;54.10;;;;;;4985026;28;19933;-68
2022/04/20 10:48:47;;;;;;;;;;;13.50;53.10;;;;;;4988110;28;19955;-68
2022/04/20 10:51:15;;;;;;;;;;;13.20;51.80;;;;;;4988107;28;19932;-68
2022/04/20 10:53:46;;;;;;;;;;;13.00;54.10;;;;;;4985571;28;19933;-67
2022/04/20 10:56:14;;;;;;;;;;;12.70;55.00;;;;;;4984156;28;20985;-68
2022/04/20 10:58:51;;;;;;;;;;;13.10;56.00;;;;;;4994429;28;19932;-68
2022/04/20 11:01:18;;;;;;;;;;;13.00;53.20;;;;;;4985834;28;19933;-68
2022/04/20 11:03:53;;;;;;;;;;;13.00;53.40;;;;;;4971719;28;19933;-68
2022/04/20 11:06:20;;;;;;;;;;;13.50;53.40;;;;;;4991100;28;19940;-67
2022/04/20 11:08:50;;;;;;;;;;;13.60;53.90;;;;;;4988541;28;19933;-68
2022/04/20 11:20:07;;;;;;;;;;;12.80;54.60;;;;;;4990541;28;19979;-68
2022/04/20 11:22:44;;;;;;;;;;;12.80;53.70;;;;;;4989046;28;20022;-68
2022/04/20 11:25:11;;;;;;;;;;;12.90;53.60;;;;;;4998745;28;20701;-68
2022/04/20 11:27:38;;;;;;;;;;;13.00;53.10;;;;;;4986805;28;20591;-68
2022/04/20 11:30:06;;;;;;;;;;;13.00;53.30;;;;;;4988395;28;19933;-68
2022/04/20 11:32:33;;;;;;;;;;;12.90;51.40;;;;;;4989624;28;22564;-68
2022/04/20 11:35:06;;;;;;;;;;;12.90;50.90;;;;;;5004843;28;19990;-68
2022/04/20 11:37:34;;;;;;;;;;;12.90;50.90;;;;;;4978478;28;19933;-68
2022/04/20 11:40:12;;;;;;;;;;;12.90;50.50;;;;;;4989248;28;20530;-68
2022/04/20 11:42:43;;;;;;;;;;;12.80;50.90;;;;;;4988945;28;20166;-68
2022/04/20 11:45:11;;;;;;;;;;;12.80;51.30;;;;;;4987119;28;19933;-68
2022/04/20 11:47:42;;;;;;;;;;;13.50;53.20;;;;;;5000424;28;19940;-68
2022/04/20 11:50:24;;;;;;;;;;;13.50;50.80;;;;;;5004108;28;19940;-68
2022/04/20 11:52:59;;;;;;;;;;;13.50;50.60;;;;;;4987904;28;22402;-68
2022/04/20 11:55:46;;;;;;;;;;;14.10;53.00;;;;;;4994582;28;19933;-68
2022/04/20 11:58:14;;;;;;;;;;;14.00;49.80;;;;;;4984779;28;20335;-68
2022/04/20 12:00:41;;;;;;;;;;;13.90;51.60;;;;;;4999839;28;19933;-68
2022/04/20 12:03:08;;;;;;;;;;;13.70;50.60;;;;;;4974639;28;19940;-68
2022/04/20 12:05:35;;;;;;;;;;;14.30;50.20;;;;;;4984267;28;20150;-69
2022/04/20 12:08:02;;;;;;;;;;;14.80;49.00;;;;;;4989259;28;19932;-68
2022/04/20 12:10:31;;;;;;;;;;;14.30;47.10;;;;;;4986020;28;19933;-68
2022/04/20 12:13:01;;;;;;;;;;;13.70;49.50;;;;;;4986407;28;20604;-68
2022/04/20 12:15:28;;;;;;;;;;;13.50;49.10;;;;;;4972407;28;20483;-68
2022/04/20 12:17:58;;;;;;;;;;;13.50;49.20;;;;;;5002817;28;19984;-68
2022/04/20 12:20:25;;;;;;;;;;;13.50;49.40;;;;;;4986945;28;19933;-67
2022/04/20 12:23:05;;;;;;;;;;;13.60;49.10;;;;;;4988626;28;20073;-68
2022/04/20 12:25:32;;;;;;;;;;;13.80;48.40;;;;;;4988715;28;19933;-68
2022/04/20 12:28:35;;;;;;;;;;;13.70;48.70;;;;;;4975660;28;19986;-68
2022/04/20 12:30:48;;;;;;;;;;;13.40;50.10;;;;;;4988301;28;20681;-68
2022/04/20 12:33:22;;;;;;;;;;;13.60;49.90;;;;;;4985785;28;19933;-68
2022/04/20 12:36:00;;;;;;;;;;;13.70;50.70;;;;;;4984885;28;19939;-68
2022/04/20 12:38:45;;;;;;;;;;;13.60;49.30;;;;;;4990312;28;20464;-67
2022/04/20 12:41:31;;;;;;;;;;;13.40;49.60;;;;;;4987335;28;19940;-68
2022/04/20 12:43:59;;;;;;;;;;;13.20;47.90;;;;;;4990467;28;20067;-69
2022/04/20 12:46:33;;;;;;;;;;;13.20;50.10;;;;;;4965581;28;19984;-68
2022/04/20 12:49:01;;;;;;;;;;;13.20;49.40;;;;;;5002775;28;19933;-69
2022/04/20 12:51:28;;;;;;;;;;;13.10;49.50;;;;;;4987248;28;20062;-66
2022/04/20 12:53:56;;;;;;;;;;;13.00;47.60;;;;;;4967366;28;22235;-67
2022/04/20 13:02:04;;;;;;;;;;;13.50;47.30;;;;;;4982730;28;20003;-67
2022/04/20 13:04:31;;;;;;;;;;;14.00;49.40;;;;;;4985298;28;22284;-67
2022/04/20 13:06:58;;;;;;;;;;;14.60;47.30;;;;;;4982554;28;19940;-67
2022/04/20 13:09:25;;;;;;;;;;;14.20;47.60;;;;;;4994993;28;19940;-67
2022/04/20 13:11:53;;;;;;;;;;;14.00;48.40;;;;;;4980697;28;19940;-67
2022/04/20 13:14:20;;;;;;;;;;;13.90;48.30;;;;;;4990453;28;19937;-68
2022/04/20 13:16:47;;;;;;;;;;;13.70;48.30;;;;;;4989234;28;20228;-67
2022/04/20 13:19:15;;;;;;;;;;;13.60;49.90;;;;;;4989106;28;20050;-68
2022/04/20 13:21:44;;;;;;;;;;;13.60;49.00;;;;;;4987919;28;19933;-70
2022/04/20 13:24:11;;;;;;;;;;;13.70;48.40;;;;;;4986014;28;20705;-66
2022/04/20 13:29:24;;;;;;;;;;;14.00;47.60;;;;;;4987526;28;19932;-66
2022/04/20 13:31:51;;;;;;;;;;;13.70;47.00;;;;;;4970837;28;19933;-67
2022/04/20 13:34:18;;;;;;;;;;;13.60;46.50;;;;;;4999086;28;20153;-67
2022/04/20 13:36:45;;;;;;;;;;;13.50;47.40;;;;;;5008550;28;20644;-71
2022/04/20 13:39:12;;;;;;;;;;;13.40;48.20;;;;;;4994309;28;20253;-68
2022/04/20 13:41:39;;;;;;;;;;;14.00;49.30;;;;;;4991169;28;19932;-67
2022/04/20 13:44:06;;;;;;;;;;;14.50;45.70;;;;;;4991287;28;20062;-67
2022/04/20 13:46:33;;;;;;;;;;;14.60;44.60;;;;;;4992426;28;19932;-68
2022/04/20 13:49:00;;;;;;;;;;;14.50;45.60;;;;;;4986963;28;19940;-67
2022/04/20 13:51:27;;;;;;;;;;;15.00;46.70;;;;;;4993824;28;19933;-67
2022/04/20 13:53:55;;;;;;;;;;;15.20;45.60;;;;;;4999929;28;19933;-68
2022/04/20 13:56:22;;;;;;;;;;;15.00;45.10;;;;;;4986908;28;19959;-68
2022/04/20 13:58:49;;;;;;;;;;;15.20;45.70;;;;;;4984566;28;19933;-68
2022/04/20 14:01:16;;;;;;;;;;;15.20;45.20;;;;;;4994309;28;19965;-68
2022/04/20 14:03:44;;;;;;;;;;;15.30;46.40;;;;;;5007498;28;22380;-69
2022/04/20 14:06:11;;;;;;;;;;;15.20;44.90;;;;;;4999643;28;22655;-68
2022/04/20 14:08:38;;;;;;;;;;;15.10;44.40;;;;;;4986309;28;19933;-68
2022/04/20 14:11:06;;;;;;;;;;;14.90;43.60;;;;;;4986191;28;20426;-69
2022/04/20 14:13:33;;;;;;;;;;;14.90;43.90;;;;;;4987806;28;19933;-69
2022/04/20 14:16:00;;;;;;;;;;;15.00;42.30;;;;;;4991012;28;19940;-70
2022/04/20 14:18:27;;;;;;;;;;;15.00;44.40;;;;;;4988786;28;19940;-69
2022/04/20 14:20:54;;;;;;;;;;;14.90;43.00;;;;;;4990966;28;20696;-69
2022/04/20 14:23:21;;;;;;;;;;;15.40;44.20;;;;;;4992809;28;19940;-69
2022/04/20 14:34:08;;;;;;;;;;;15.80;44.30;;;;;;4992154;28;19933;-69
2022/04/20 14:36:36;;;;;;;;;;;15.70;43.20;;;;;;5005375;28;19972;-69
2022/04/20 14:39:03;;;;;;;;;;;15.10;44.60;;;;;;4984219;28;20013;-69
2022/04/20 14:41:30;;;;;;;;;;;14.80;45.10;;;;;;4994669;28;19933;-69
2022/04/20 14:43:57;;;;;;;;;;;14.60;45.00;;;;;;4989521;28;22534;-69
2022/04/20 14:46:26;;;;;;;;;;;14.30;44.80;;;;;;4988296;28;19941;-73
2022/04/20 14:48:53;;;;;;;;;;;14.10;44.20;;;;;;4990222;28;20727;-70
2022/04/20 14:51:22;;;;;;;;;;;14.10;45.70;;;;;;4990171;28;19939;-69
2022/04/20 14:53:49;;;;;;;;;;;14.40;44.40;;;;;;4990185;28;19933;-69
2022/04/20 14:56:16;;;;;;;;;;;14.50;43.70;;;;;;4989111;28;19984;-69
2022/04/20 14:58:43;;;;;;;;;;;14.80;43.60;;;;;;5004586;28;19933;-69
2022/04/20 15:01:11;;;;;;;;;;;15.00;44.80;;;;;;4987660;28;19933;-67
2022/04/20 15:03:39;;;;;;;;;;;15.10;46.10;;;;;;4990190;28;22092;-70
2022/04/20 15:06:08;;;;;;;;;;;15.20;45.40;;;;;;4991258;28;20490;-69
2022/04/20 15:08:35;;;;;;;;;;;15.20;44.50;;;;;;4988642;28;19941;-69
2022/04/20 15:11:02;;;;;;;;;;;15.00;44.30;;;;;;4980499;28;20324;-68
2022/04/20 15:13:29;;;;;;;;;;;14.90;42.80;;;;;;4990779;28;19932;-68
2022/04/20 15:16:00;;;;;;;;;;;14.70;44.30;;;;;;5001776;28;19961;-68
2022/04/20 15:18:27;;;;;;;;;;;14.80;44.10;;;;;;4994239;28;20157;-69
2022/04/20 15:20:54;;;;;;;;;;;14.40;45.10;;;;;;4991103;28;19940;-69
2022/04/20 15:23:42;;;;;;;;;;;14.30;46.00;;;;;;4988763;28;22355;-69
2022/04/20 15:26:11;;;;;;;;;;;14.20;47.50;;;;;;4990531;28;19986;-70
2022/04/20 15:28:39;;;;;;;;;;;14.10;47.10;;;;;;5002768;28;19933;-70
2022/04/20 15:31:09;;;;;;;;;;;14.00;46.60;;;;;;4991221;28;19995;-70
2022/04/20 15:33:37;;;;;;;;;;;14.10;47.40;;;;;;4986867;28;19940;-69
2022/04/20 15:36:04;;;;;;;;;;;14.30;46.80;;;;;;4990233;28;19933;-69
2022/04/20 15:38:34;;;;;;;;;;;14.40;46.30;;;;;;4988779;28;19939;-69
2022/04/20 15:41:01;;;;;;;;;;;14.10;46.40;;;;;;4988799;28;20010;-70
2022/04/20 15:43:35;;;;;;;;;;;13.80;47.00;;;;;;4988233;28;19933;-71